Flight Track Log - Related Links

Times and Time Zones

All times are in EDT time to prevent confusion due to time zone crossing. See the DAL10 flight status page for this flight to view local times or setup timezone preferences in your user account.

Time Position Orientation Groundspeed Altitude Reporting Facility
EDT Latitude Longitude Course Direction KTS MPH feet Rate Location/Type
Wed 11:02:44 PM 33.6350 -84.3790 91° East 191 220 2,600  Level FlightAware ADS-B
Wed 11:03:14 PM 33.6340 -84.3480 92° East 192 221 2,800 1,579 Climbing FlightAware ADS-B
Wed 11:04:19 PM 33.6330 -84.2540 91° East 273 314 5,100 1,533 Climbing FlightAware ADS-B
Wed 11:04:44 PM 33.6330 -84.2210 90° East 273 314 5,100 2,609 Level FlightAware ADS-B
Wed 11:06:14 PM 33.6360 -84.0740 89° East 296 341 10,100 2,723 Climbing FlightAware ADS-B
Wed 11:06:54 PM 33.6400 -84.0040 86° East 334 384 11,000 1,200 Climbing FlightAware ADS-B
Wed 11:07:34 PM 33.6450 -83.9230 86° East 375 432 11,700 1,129 Climbing FlightAware ADS-B
Wed 11:08:19 PM 33.6500 -83.8250 86° East 411 473 12,600 1,694 Climbing FlightAware ADS-B
Wed 11:08:59 PM 33.6560 -83.7310 86° East 421 484 14,100 2,188 Climbing FlightAware ADS-B
Wed 11:09:44 PM 33.6690 -83.6280 81° East 437 503 15,700 1,976 Climbing FlightAware ADS-B
Wed 11:10:24 PM 33.7020 -83.5370 66° East 451 519 16,900 1,906 Climbing FlightAware ADS-B
Wed 11:11:09 PM 33.7400 -83.4450 64° Northeast 455 524 18,400 1,976 Climbing FlightAware ADS-B
Wed 11:11:49 PM 33.7820 -83.3430 64° Northeast 467 537 19,700 1,950 Climbing FlightAware ADS-B
Wed 11:12:29 PM 33.8190 -83.2490 65° Northeast 471 542 21,000 1,906 Climbing FlightAware ADS-B
Wed 11:13:14 PM 33.8600 -83.1480 64° Northeast 479 551 22,400 1,835 Climbing FlightAware ADS-B
Wed 11:13:54 PM 33.9010 -83.0440 65° Northeast 485 558 23,600 1,624 Climbing FlightAware ADS-B
Wed 11:14:39 PM 33.9460 -82.9320 64° Northeast 495 570 24,700 1,482 Climbing FlightAware ADS-B
Wed 11:15:19 PM 33.9880 -82.8280 64° Northeast 498 573 25,700 1,650 Climbing FlightAware ADS-B
Wed 11:15:59 PM 34.0290 -82.7240 65° Northeast 502 578 26,900 1,650 Climbing FlightAware ADS-B
Wed 11:16:39 PM 34.0670 -82.6270 65° Northeast 501 577 27,900 1,482 Climbing FlightAware ADS-B
Wed 11:17:24 PM 34.1120 -82.5120 65° Northeast 502 578 29,000 733 Climbing FlightAware ADS-B
Wed 11:18:09 PM 34.1560 -82.4010 64° Northeast 504 580 29,000  Level FlightAware ADS-B
Wed 11:18:49 PM 34.1960 -82.2970 65° Northeast 505 581 29,000  Level FlightAware ADS-B
Wed 11:19:29 PM 34.2370 -82.1960 64° Northeast 506 582 29,000  Level FlightAware ADS-B
Wed 11:20:14 PM 34.2870 -82.0870 61° Northeast 504 580 29,000 71 Level FlightAware ADS-B
Wed 11:20:54 PM 34.3350 -81.9910 59° Northeast 504 580 29,100 1,200 Climbing FlightAware ADS-B
Wed 11:21:39 PM 34.3890 -81.8830 59° Northeast 489 563 30,700 1,341 Climbing FlightAware ADS-B
Wed 11:22:19 PM 34.4350 -81.7910 59° Northeast 488 562 31,000 225 Climbing FlightAware ADS-B
Wed 11:22:59 PM 34.4810 -81.6980 59° Northeast 488 562 31,000  Level FlightAware ADS-B
Wed 11:23:44 PM 34.5340 -81.5920 59° Northeast 489 563 31,000  Level FlightAware ADS-B
Wed 11:24:19 PM 34.5710 -81.5170 59° Northeast 490 564 31,000  Level FlightAware ADS-B
Wed 11:25:04 PM 34.6220 -81.4130 59° Northeast 492 566 31,000  Level FlightAware ADS-B
Wed 11:25:49 PM 34.6800 -81.2960 59° Northeast 492 566 31,000  Level FlightAware ADS-B
Wed 11:26:34 PM 34.7320 -81.1890 59° Northeast 491 565 31,000  Level FlightAware ADS-B
Wed 11:27:14 PM 34.7770 -81.0980 59° Northeast 491 565 31,000  Level FlightAware ADS-B
Wed 11:27:59 PM 34.8250 -80.9980 60° Northeast 490 564 31,000  Level FlightAware ADS-B
Wed 11:28:39 PM 34.8760 -80.8950 59° Northeast 489 563 31,000  Level FlightAware ADS-B
Wed 11:29:34 PM 34.9370 -80.7680 60° Northeast 489 563 31,000  Level FlightAware ADS-B
Wed 11:30:14 PM 34.9770 -80.6870 59° Northeast 489 563 31,000  Level FlightAware ADS-B
Wed 11:30:54 PM 35.0270 -80.5840 59° Northeast 489 563 31,000  Level FlightAware ADS-B
Wed 11:32:09 PM 35.0390 -80.5590 60° Northeast 489 563 31,000  Level FlightAware ADS-B
Wed 11:32:49 PM 35.0780 -80.4790 59° Northeast 489 563 31,000  Level FlightAware ADS-B
Wed 11:33:29 PM 35.1180 -80.3980 59° Northeast 489 563 31,000  Level FlightAware ADS-B
Wed 11:34:09 PM 35.1570 -80.3180 59° Northeast 489 563 31,000  Level FlightAware ADS-B
Wed 11:34:49 PM 35.1970 -80.2370 59° Northeast 489 563 31,000  Level FlightAware ADS-B
Wed 11:35:39 PM 35.2470 -80.1360 59° Northeast 489 563 31,000  Level FlightAware ADS-B
Wed 11:36:19 PM 35.2860 -80.0550 59° Northeast 489 563 31,000  Level FlightAware ADS-B
Wed 11:36:59 PM 35.3260 -79.9740 59° Northeast 489 563 31,000  Level FlightAware ADS-B
Wed 11:37:39 PM 35.3650 -79.8940 59° Northeast 489 563 31,000  Level FlightAware ADS-B
Wed 11:38:19 PM 35.4050 -79.8130 59° Northeast 489 563 31,000  Level FlightAware ADS-B
Wed 11:39:09 PM 35.4550 -79.7120 59° Northeast 489 563 31,000  Level FlightAware ADS-B
Wed 11:39:49 PM 35.4940 -79.6310 59° Northeast 489 563 31,000  Level FlightAware ADS-B
Wed 11:40:29 PM 35.5340 -79.5500 59° Northeast 489 563 31,000  Level FlightAware ADS-B
Wed 11:41:14 PM 35.7440 -79.0880 61° Northeast 491 565 31,000  Level FlightAware ADS-B
Wed 11:41:54 PM 35.8030 -78.9950 52° Northeast 490 564 31,000  Level FlightAware ADS-B
Wed 11:42:39 PM 35.8700 -78.8940 51° Northeast 489 563 31,000  Level FlightAware ADS-B
Wed 11:43:19 PM 35.9270 -78.8100 50° Northeast 490 564 31,000  Level FlightAware ADS-B
Wed 11:44:04 PM 35.9900 -78.7140 51° Northeast 490 564 31,000  Level FlightAware ADS-B
Wed 11:44:44 PM 36.0460 -78.6270 51° Northeast 491 565 31,000  Level FlightAware ADS-B
Wed 11:45:24 PM 36.1050 -78.5380 51° Northeast 492 566 31,000  Level FlightAware ADS-B
Wed 11:46:09 PM 36.1710 -78.4370 51° Northeast 493 567 31,000  Level FlightAware ADS-B
Wed 11:46:49 PM 36.2260 -78.3520 51° Northeast 494 568 31,000  Level FlightAware ADS-B
Wed 11:47:34 PM 36.2900 -78.2540 51° Northeast 494 568 31,000  Level FlightAware ADS-B
Wed 11:48:09 PM 36.3390 -78.1780 51° Northeast 495 570 31,000  Level FlightAware ADS-B
Wed 11:48:54 PM 36.4050 -78.0760 51° Northeast 495 570 31,000  Level FlightAware ADS-B
Wed 11:49:39 PM 36.4710 -77.9740 51° Northeast 494 568 31,000  Level FlightAware ADS-B
Wed 11:50:19 PM 36.5210 -77.8980 51° Northeast 494 568 31,000  Level FlightAware ADS-B
Wed 11:50:59 PM 36.5700 -77.8230 51° Northeast 494 568 31,000  Level FlightAware ADS-B
Wed 11:51:39 PM 36.6190 -77.7480 51° Northeast 494 568 31,000  Level FlightAware ADS-B
Wed 11:52:19 PM 36.6940 -77.6270 52° Northeast 491 565 31,000  Level FlightAware ADS-B
Wed 11:53:04 PM 36.7520 -77.5370 51° Northeast 491 565 31,000  Level FlightAware ADS-B
Wed 11:53:44 PM 36.8010 -77.4620 51° Northeast 491 565 31,000  Level FlightAware ADS-B
Wed 11:54:34 PM 36.8620 -77.3690 51° Northeast 491 565 31,000  Level FlightAware ADS-B
Wed 11:55:09 PM 36.9360 -77.2460 53° Northeast 483 556 31,000  Level FlightAware ADS-B
Wed 11:55:54 PM 36.9980 -77.1480 52° Northeast 483 556 31,000  Level FlightAware ADS-B
Wed 11:56:39 PM 37.0570 -77.0530 52° Northeast 483 556 31,000  Level FlightAware ADS-B
Wed 11:57:19 PM 37.1040 -76.9780 52° Northeast 483 556 31,000  Level FlightAware ADS-B
Wed 11:58:14 PM 37.1860 -76.8480 52° Northeast 484 557 31,000  Level FlightAware ADS-B
Wed 11:58:54 PM 37.2470 -76.7510 52° Northeast 484 557 31,000  Level FlightAware ADS-B
Wed 11:59:54 PM 37.3350 -76.6090 52° Northeast 490 564 31,000  Level FlightAware ADS-B
Thu 12:00:32 AM 37.3899 -76.5202 52° Northeast 490 564 31,000  Level FlightAware ADS-B
Thu 12:01:03 AM 37.4331 -76.4503 52° Northeast 490 564 31,000  Level FlightAware ADS-B
Thu 12:01:36 AM 37.4788 -76.3765 52° Northeast 489 563 31,000  Level FlightAware ADS-B
Thu 12:02:06 AM 37.5209 -76.3084 52° Northeast 488 562 31,000  Level FlightAware ADS-B
Thu 12:02:41 AM 37.5689 -76.2301 52° Northeast 488 562 31,000  Level FlightAware ADS-B
Thu 12:03:13 AM 37.6118 -76.1603 52° Northeast 486 559 31,000  Level FlightAware ADS-B
Thu 12:03:43 AM 37.6537 -76.0921 52° Northeast 484 557 31,000  Level FlightAware ADS-B
Thu 12:04:13 AM 37.6952 -76.0243 52° Northeast 483 556 31,000  Level FlightAware ADS-B
Thu 12:04:49 AM 37.7410 -75.9490 52° Northeast 481 554 31,000  Level FlightAware ADS-B
Thu 12:05:06 AM 37.7666 -75.9070 52° Northeast 481 554 31,000  Level FlightAware ADS-B
Thu 12:06:14 AM 37.8550 -75.7610 52° Northeast 479 551 31,000  Level FlightAware ADS-B
Thu 12:06:33 AM 37.8848 -75.7127 52° Northeast 479 551 31,000  Level FlightAware ADS-B
Thu 12:07:04 AM 37.9258 -75.6449 53° Northeast 479 551 31,000  Level FlightAware ADS-B
Thu 12:07:35 AM 37.9671 -75.5766 52° Northeast 479 551 31,000  Level FlightAware ADS-B
Thu 12:08:06 AM 38.0092 -75.5071 52° Northeast 478 550 31,000  Level FlightAware ADS-B
Thu 12:08:18 AM 38.0267 -75.4792 51° Northeast 477 549 31,000  Level FlightAware ADS-B
Thu 12:08:38 AM 38.0559 -75.4410 46° Northeast 476 548 31,000  Level FlightAware ADS-B
Thu 12:09:43 AM 38.1649 -75.3241 40° Northeast 474 545 31,000  Level FlightAware ADS-B
Thu 12:10:14 AM 38.2161 -75.2670 41° Northeast 472 543 31,000  Level FlightAware ADS-B
Thu 12:10:46 AM 38.2691 -75.2102 40° Northeast 471 542 31,000  Level FlightAware ADS-B
Thu 12:11:17 AM 38.3212 -75.1556 39° Northeast 472 543 31,000  Level FlightAware ADS-B
Thu 12:11:47 AM 38.3718 -75.1027 39° Northeast 472 543 31,000  Level FlightAware ADS-B
Thu 12:12:29 AM 38.4390 -75.0330 39° Northeast 465 535 31,000  Level FlightAware ADS-B
Thu 12:12:39 AM 38.4595 -75.0114 40° Northeast 472 543 31,000  Level FlightAware ADS-B
Thu 12:13:09 AM 38.5103 -74.9582 39° Northeast 473 544 31,000  Level FlightAware ADS-B
Thu 12:13:40 AM 38.5637 -74.9020 39° Northeast 473 544 31,000  Level FlightAware ADS-B
Thu 12:14:12 AM 38.6174 -74.8452 40° Northeast 473 544 31,000  Level FlightAware ADS-B
Thu 12:14:45 AM 38.6729 -74.7861 40° Northeast 473 544 31,000  Level FlightAware ADS-B
Thu 12:15:16 AM 38.7246 -74.7312 40° Northeast 472 543 31,000  Level FlightAware ADS-B
Thu 12:15:47 AM 38.7768 -74.6760 39° Northeast 471 542 31,000  Level FlightAware ADS-B
Thu 12:16:43 AM 38.8667 -74.5798 40° Northeast 462 532 31,000  Level FlightAware ADS-B
Thu 12:17:14 AM 38.9170 -74.5261 40° Northeast 442 509 31,000  Level FlightAware ADS-B
Thu 12:17:45 AM 38.9657 -74.4744 40° Northeast 449 517 31,000  Level FlightAware ADS-B
Thu 12:18:08 AM 39.0013 -74.4357 40° Northeast 452 520 31,000  Level FlightAware ADS-B
Thu 12:18:27 AM 39.0294 -74.3994 45° Northeast 454 522 31,000  Level FlightAware ADS-B
Thu 12:18:57 AM 39.0682 -74.3342 53° Northeast 461 531 31,000  Level FlightAware ADS-B
Thu 12:19:32 AM 39.1075 -74.2509 59° Northeast 465 535 31,000  Level FlightAware ADS-B
Thu 12:20:05 AM 39.1444 -74.1721 59° Northeast 463 533 31,000  Level FlightAware ADS-B
Thu 12:20:41 AM 39.1830 -74.0888 59° Northeast 462 532 31,000  Level FlightAware ADS-B
Thu 12:21:12 AM 39.2169 -74.0154 59° Northeast 462 532 31,000  Level FlightAware ADS-B
Thu 12:21:44 AM 39.2522 -73.9390 59° Northeast 461 531 31,000  Level FlightAware ADS-B
Thu 12:22:15 AM 39.2862 -73.8653 59° Northeast 463 533 31,000  Level FlightAware ADS-B
Thu 12:22:46 AM 39.3202 -73.7939 58° Northeast 464 534 31,000  Level FlightAware ADS-B
Thu 12:23:17 AM 39.3547 -73.7213 58° Northeast 466 536 31,000  Level FlightAware ADS-B
Thu 12:23:47 AM 39.3888 -73.6489 59° Northeast 466 536 31,000  Level FlightAware ADS-B
Thu 12:24:17 AM 39.4226 -73.5770 59° Northeast 467 537 31,000  Level FlightAware ADS-B
Thu 12:24:48 AM 39.4565 -73.5048 59° Northeast 467 537 31,000  Level FlightAware ADS-B
Thu 12:25:20 AM 39.4925 -73.4280 59° Northeast 466 536 31,000  Level FlightAware ADS-B
Thu 12:25:50 AM 39.5259 -73.3563 59° Northeast 466 536 31,000  Level FlightAware ADS-B
Thu 12:26:20 AM 39.5594 -73.2845 59° Northeast 465 535 31,000  Level FlightAware ADS-B
Thu 12:26:54 AM 39.5966 -73.2044 59° Northeast 464 534 31,000  Level FlightAware ADS-B
Thu 12:27:24 AM 39.6298 -73.1330 59° Northeast 464 534 31,000  Level FlightAware ADS-B
Thu 12:27:54 AM 39.6629 -73.0614 59° Northeast 465 535 31,000  Level FlightAware ADS-B
Thu 12:28:25 AM 39.6979 -72.9857 59° Northeast 466 536 31,000  Level FlightAware ADS-B
Thu 12:28:55 AM 39.7312 -72.9133 59° Northeast 469 540 31,000  Level FlightAware ADS-B
Thu 12:29:26 AM 39.7649 -72.8399 59° Northeast 471 542 31,000  Level FlightAware ADS-B
Thu 12:29:58 AM 39.8003 -72.7629 59° Northeast 472 543 31,000  Level FlightAware ADS-B
Thu 12:30:28 AM 39.8347 -72.6878 59° Northeast 474 545 31,000  Level FlightAware ADS-B
Thu 12:31:01 AM 39.8708 -72.6084 59° Northeast 474 545 31,000  Level FlightAware ADS-B
Thu 12:31:31 AM 39.9052 -72.5329 59° Northeast 476 548 31,000  Level FlightAware ADS-B
Thu 12:32:02 AM 39.9390 -72.4584 59° Northeast 477 549 31,000  Level FlightAware ADS-B
Thu 12:32:49 AM 39.9910 -72.3440 59° Northeast 478 550 31,000  Level FlightAware ADS-B
Thu 12:33:29 AM 40.0360 -72.2450 59° Northeast 479 551 31,000  Level FlightAware ADS-B
Thu 12:34:14 AM 40.0860 -72.1320 60° Northeast 479 551 31,000  Level FlightAware ADS-B
Thu 12:34:49 AM 40.1240 -72.0460 60° Northeast 479 551 31,000  Level FlightAware ADS-B
Thu 12:35:34 AM 40.1720 -71.9400 59° Northeast 481 554 31,000  Level FlightAware ADS-B
Thu 12:36:19 AM 40.2250 -71.8200 60° Northeast 483 556 31,000  Level FlightAware ADS-B
Thu 12:36:59 AM 40.2650 -71.7290 60° Northeast 483 556 31,000  Level FlightAware ADS-B
Thu 12:37:34 AM 40.3050 -71.6390 60° Northeast 486 559 31,000  Level FlightAware ADS-B
Thu 12:38:24 AM 40.3620 -71.5100 60° Northeast 486 559 31,000  Level FlightAware ADS-B
Thu 12:39:04 AM 40.4000 -71.4230 60° Northeast 486 559 31,000  Level FlightAware ADS-B
Thu 12:39:44 AM 40.4390 -71.3360 59° Northeast 486 559 31,000  Level FlightAware ADS-B
Thu 12:40:24 AM 40.4770 -71.2490 60° Northeast 486 559 31,000  Level FlightAware ADS-B
Thu 12:41:14 AM 40.5250 -71.1400 60° Northeast 486 559 31,000  Level FlightAware ADS-B
Thu 12:41:54 AM 40.5630 -71.0530 60° Northeast 486 559 31,000  Level FlightAware ADS-B
Thu 12:42:34 AM 40.6010 -70.9660 60° Northeast 486 559 31,000  Level FlightAware ADS-B
Thu 12:43:19 AM 40.6900 -70.7530 61° Northeast 487 560 31,000  Level FlightAware ADS-B
Thu 12:43:54 AM 40.7260 -70.6690 60° Northeast 487 560 31,000  Level FlightAware ADS-B
Thu 12:44:44 AM 40.7740 -70.5600 60° Northeast 487 560 31,000  Level FlightAware ADS-B
Thu 12:45:24 AM 40.8120 -70.4720 60° Northeast 487 560 31,000  Level FlightAware ADS-B
Thu 12:46:04 AM 40.8500 -70.3850 60° Northeast 487 560 31,000  Level FlightAware ADS-B
Thu 12:46:44 AM 40.8890 -70.2970 60° Northeast 487 560 31,000  Level FlightAware ADS-B
Thu 12:47:24 AM 40.9270 -70.2090 60° Northeast 487 560 31,000  Level FlightAware ADS-B
Thu 12:48:14 AM 40.9750 -70.0990 60° Northeast 487 560 31,000  Level FlightAware ADS-B
Thu 12:48:54 AM 41.0130 -70.0110 60° Northeast 487 560 31,000  Level FlightAware ADS-B
Thu 12:49:34 AM 41.0510 -69.9240 60° Northeast 487 560 31,000  Level FlightAware ADS-B
Thu 12:50:14 AM 41.0900 -69.8360 60° Northeast 487 560 31,000  Level FlightAware ADS-B
Thu 12:50:54 AM 41.1280 -69.7470 60° Northeast 487 560 31,000  Level FlightAware ADS-B
Thu 12:51:44 AM 41.1760 -69.6370 60° Northeast 487 560 31,000  Level FlightAware ADS-B
Thu 12:52:24 AM 41.2140 -69.5490 60° Northeast 487 560 31,000  Level FlightAware ADS-B
Thu 12:53:04 AM 41.2520 -69.4610 60° Northeast 487 560 31,000  Level FlightAware ADS-B
Thu 12:53:22 AM 41.3622 -69.1458 60° Northeast 500 575 31,000  Level Boston Center
Thu 12:58:44 AM 41.7060 -68.2590 60° Northeast 511 588 31,000  Level FlightAware ADS-B
Thu 12:59:24 AM 41.7460 -68.1540 63° Northeast 511 588 31,000  Level FlightAware ADS-B
Thu 01:00:04 AM 41.7830 -68.0580 63° Northeast 511 588 31,000  Level FlightAware ADS-B
Thu 01:00:44 AM 41.8190 -67.9620 63° Northeast 511 588 31,000  Level FlightAware ADS-B
Thu 01:01:24 AM 41.8560 -67.8660 63° Northeast 511 588 31,000  Level FlightAware ADS-B
Thu 01:02:49 AM 41.9780 -67.5510 62° Northeast 517 595 31,000  Level FlightAware ADS-B
Thu 01:03:34 AM 42.0230 -67.4340 63° Northeast 517 595 31,000  Level FlightAware ADS-B
Thu 01:04:14 AM 42.0600 -67.3360 63° Northeast 517 595 31,000  Level FlightAware ADS-B
Thu 01:04:54 AM 42.0960 -67.2380 64° Northeast 517 595 31,000  Level FlightAware ADS-B
Thu 01:05:44 AM 42.1430 -67.1160 63° Northeast 517 595 31,000  Level FlightAware ADS-B
Thu 01:06:24 AM 42.1800 -67.0190 63° Northeast 517 595 31,000  Level FlightAware ADS-B
Thu 01:07:04 AM 42.2160 -66.9210 64° Northeast 517 595 31,000  Level FlightAware ADS-B
Thu 01:07:44 AM 42.2530 -66.8230 63° Northeast 517 595 31,000  Level FlightAware ADS-B
Thu 01:08:24 AM 42.2900 -66.7250 63° Northeast 517 595 31,000  Level FlightAware ADS-B
Thu 01:09:14 AM 42.3360 -66.6020 63° Northeast 517 595 31,000  Level FlightAware ADS-B
Thu 01:09:54 AM 42.3730 -66.5040 63° Northeast 517 595 31,000  Level FlightAware ADS-B
Thu 01:10:34 AM 42.4100 -66.4060 63° Northeast 517 595 31,000  Level FlightAware ADS-B
Thu 01:11:14 AM 42.4470 -66.3080 63° Northeast 517 595 31,000  Level FlightAware ADS-B
Thu 01:11:54 AM 42.4840 -66.2100 63° Northeast 517 595 31,000  Level FlightAware ADS-B
Thu 01:12:44 AM 42.5300 -66.0870 63° Northeast 517 595 31,000  Level FlightAware ADS-B
Thu 01:13:52 AM 42.6333 -65.5333 63° Northeast 530 610 31,000  Level Moncton Center
Thu 01:14:52 AM 42.6833 -65.3500 70° East 520 598 31,000  Level Moncton Center
Thu 01:15:52 AM 42.7333 -65.1667 70° East 530 610 31,000  Level Moncton Center
Thu 01:16:52 AM 42.8000 -64.9667 66° East 530 610 31,000  Level Moncton Center
Thu 01:17:52 AM 42.8500 -64.7833 70° East 530 610 31,000  Level Moncton Center
Thu 01:18:52 AM 42.9000 -64.6000 70° East 530 610 31,000  Level Moncton Center
Thu 01:19:52 AM 42.9500 -64.4167 70° East 530 610 31,000  Level Moncton Center
Thu 01:20:52 AM 43.0000 -64.2167 71° East 530 610 31,000  Level Moncton Center
Thu 01:21:52 AM 43.0667 -64.0333 63° Northeast 540 621 31,000  Level Moncton Center
Thu 01:22:52 AM 43.1167 -63.8500 69° East 540 621 31,000  Level Moncton Center
Thu 01:23:52 AM 43.1667 -63.6333 72° East 530 610 31,000  Level Moncton Center
Thu 01:24:52 AM 43.2167 -63.4500 69° East 540 621 31,000  Level Moncton Center
Thu 01:25:52 AM 43.2667 -63.2667 69° East 540 621 31,000  Level Moncton Center
Thu 01:26:52 AM 43.3333 -63.0667 65° Northeast 540 621 31,000  Level Moncton Center
Thu 01:27:57 AM 43.3833 -62.8667 71° East 540 621 31,000  Level Gander Center
Thu 01:28:57 AM 43.4167 -62.6833 76° East 550 633 31,000  Level Gander Center
Thu 01:29:57 AM 43.4833 -62.4667 67° East 550 633 31,000  Level Gander Center
Thu 01:30:57 AM 43.5333 -62.2667 71° East 550 633 31,000  Level Gander Center
Thu 01:31:57 AM 43.5833 -62.0667 71° East 550 633 31,000  Level Gander Center
Thu 01:32:57 AM 43.6333 -61.8833 69° East 550 633 31,000  Level Gander Center
Thu 01:33:57 AM 43.7000 -61.6667 67° East 550 633 31,000  Level Gander Center
Thu 01:34:57 AM 43.7333 -61.4667 77° East 550 633 31,000  Level Gander Center
Thu 01:35:57 AM 43.7833 -61.2667 71° East 550 633 31,000  Level Gander Center
Thu 01:36:57 AM 43.8333 -61.0667 71° East 550 633 31,000  Level Gander Center
Thu 01:37:57 AM 43.9000 -60.8667 65° Northeast 550 633 31,000  Level Gander Center
Thu 01:38:57 AM 43.9333 -60.6833 76° East 560 644 31,000  Level Gander Center
Thu 01:39:57 AM 43.9667 -60.4667 78° East 560 644 31,000  Level Gander Center
Thu 01:40:57 AM 44.0333 -60.2667 65° Northeast 560 644 31,000  Level Gander Center
Thu 01:41:57 AM 44.0833 -60.0500 72° East 560 644 31,000  Level Gander Center
Thu 01:42:57 AM 44.1333 -59.8500 71° East 550 633 31,000  Level Gander Center
Thu 01:43:57 AM 44.1833 -59.6500 71° East 550 633 31,000  Level Gander Center
Thu 01:44:57 AM 44.2333 -59.4500 71° East 550 633 31,000 200 Level Gander Center
Thu 01:45:57 AM 44.2667 -59.2333 78° East 550 633 31,400 450 Climbing Gander Center
Thu 01:46:57 AM 44.3167 -59.0500 69° East 550 633 31,900 500 Climbing Gander Center
Thu 01:47:57 AM 44.3667 -58.8333 72° East 550 633 32,400 500 Climbing Gander Center
Thu 01:48:57 AM 44.4167 -58.6167 72° East 550 633 32,900 300 Climbing Gander Center
Thu 01:49:57 AM 44.4500 -58.4333 76° East 550 633 33,000 50 Climbing Gander Center
Thu 01:50:57 AM 44.5000 -58.2167 72° East 550 633 33,000  Level Gander Center
Thu 01:51:57 AM 44.5500 -58.0333 69° East 550 633 33,000  Level Gander Center
Thu 01:52:57 AM 44.5833 -57.8167 78° East 550 633 33,000  Level Gander Center
Thu 01:53:57 AM 44.6333 -57.6000 72° East 550 633 33,000  Level Gander Center
Thu 01:54:57 AM 44.6667 -57.4167 76° East 550 633 33,000  Level Gander Center
Thu 01:55:57 AM 44.7167 -57.2000 72° East 550 633 33,000  Level Gander Center
Thu 01:56:57 AM 44.7500 -56.9833 78° East 560 644 33,000  Level Gander Center
Thu 01:57:57 AM 44.8000 -56.7667 72° East 550 633 33,000  Level Gander Center
Thu 01:58:52 AM 44.8333 -56.5833 76° East 550 633 33,000  Level Moncton Center
Thu 01:58:57 AM 44.8333 -56.5833 76° East 560 644 33,000  Level Gander Center
Thu 01:59:52 AM 44.8667 -56.3833 77° East 550 633 33,000  Level Moncton Center
Thu 02:00:52 AM 44.9167 -56.1667 72° East 550 633 33,000  Level Moncton Center
Thu 02:01:52 AM 44.9500 -55.9667 77° East 550 633 33,000  Level Moncton Center
Thu 02:02:52 AM 45.0000 -55.7500 72° East 560 644 33,000  Level Moncton Center
Thu 02:03:57 AM 45.0333 -55.5167 78° East 560 644 33,000  Level Gander Center
Thu 02:04:57 AM 45.0833 -55.3000 72° East 560 644 33,000  Level Gander Center
Thu 02:05:57 AM 45.1333 -55.0833 72° East 570 656 33,000  Level Gander Center
Thu 02:06:57 AM 45.1667 -54.9000 75° East 570 656 33,000  Level Gander Center
Thu 02:07:43 AM 45.2000 -54.7000 77° East 570 656 33,000  Level Gander Center
Thu 02:08:43 AM 45.2500 -54.5000 70° East 570 656 33,000  Level Gander Center
Thu 02:09:43 AM 45.2833 -54.2667 78° East 570 656 33,000  Level Gander Center
Thu 02:10:57 AM 45.3333 -54.0000 75° East 570 656 33,000  Level Gander Center
Thu 02:11:43 AM 45.3500 -53.8167 83° East 570 656 33,000  Level Gander Center
Thu 02:12:43 AM 45.3833 -53.6333 75° East 570 656 33,000  Level Gander Center
Thu 02:13:43 AM 45.4500 -53.4000 68° East 570 656 33,000  Level Gander Center
Thu 02:14:43 AM 45.4833 -53.1833 78° East 570 656 33,000  Level Gander Center
Thu 02:15:43 AM 45.5167 -52.9667 78° East 570 656 33,000  Level Gander Center
Thu 02:16:57 AM 45.5500 -52.7000 80° East 570 656 33,000  Level Gander Center
Thu 02:17:57 AM 45.5833 -52.4833 78° East 570 656 33,000  Level Gander Center
Thu 02:18:57 AM 45.6167 -52.2833 77° East 570 656 33,000  Level Gander Center
Thu 02:19:43 AM 45.6500 -52.0833 77° East 570 656 33,000  Level Gander Center
Thu 02:20:43 AM 45.6833 -51.8833 77° East 570 656 33,000  Level Gander Center
Thu 02:21:43 AM 45.7333 -51.6667 72° East 570 656 33,000  Level Gander Center
Thu 02:22:57 AM 45.7667 -51.3833 80° East 570 656 33,000  Level Gander Center
Thu 02:23:57 AM 45.8000 -51.1333 79° East 570 656 33,000  Level Gander Center
Thu 02:24:57 AM 45.8333 -50.9500 75° East 560 644 33,000  Level Gander Center
Thu 02:25:43 AM 45.8500 -50.8000 81° East 550 633 33,000  Level Gander Center
Thu 02:26:43 AM 45.8833 -50.5667 78° East 560 644 33,000  Level Gander Center
Thu 02:27:43 AM 45.9167 -50.3500 77° East 550 633 33,000  Level Gander Center
Thu 02:28:43 AM 45.9667 -50.1167 73° East 540 621 33,000  Level Gander Center
Thu 02:29:43 AM 45.9833 -49.9167 83° East 540 621 33,000  Level Gander Center
Thu 02:30:43 AM 46.0333 -49.7167 70° East 540 621 33,000  Level Gander Center
Thu 02:31:43 AM 46.0833 -49.5333 68° East 510 587 33,000  Level Gander Center
Thu 02:32:57 AM 46.1333 -49.3000 73° East 520 598 33,000  Level Gander Center
Thu 02:33:43 AM 46.1667 -49.1500 72° East 520 598 33,000  Level Gander Center
Thu 02:34:57 AM 46.2333 -48.9167 67° East 520 598 33,000  Level Gander Center
Thu 02:35:57 AM 46.2833 -48.7167 70° East 520 598 33,000  Level Gander Center
Thu 02:36:43 AM 46.3167 -48.5667 72° East 520 598 33,000  Level Gander Center
Thu 02:37:43 AM 46.3667 -48.3500 71° East 520 598 33,000  Level Gander Center
Thu 02:38:57 AM 46.4167 -48.1167 73° East 510 587 33,000  Level Gander Center
Thu 02:39:57 AM 46.4667 -47.9333 68° East 510 587 33,000  Level Gander Center
Thu 02:40:43 AM 46.5000 -47.7833 72° East 510 587 33,000  Level Gander Center
Thu 02:41:57 AM 46.5500 -47.5500 73° East 510 587 33,000  Level Gander Center
Thu 02:42:57 AM 46.6000 -47.3333 71° East 520 598 33,000  Level Gander Center
Thu 02:43:57 AM 46.6333 -47.1333 76° East 510 587 33,000  Level Gander Center
Thu 02:44:57 AM 46.7000 -46.9167 66° East 530 610 33,000  Level Gander Center
Thu 02:45:57 AM 46.7167 -46.7333 82° East 530 610 33,000  Level Gander Center
Thu 02:47:00 AM 46.7715 -46.4883 72° East  Level FlightAware Approximate
Thu 02:54:00 AM 47.0614 -45.1428 72° East  Level FlightAware Approximate
Thu 02:55:00 AM 47.1015 -44.9495 73° East  Level FlightAware Approximate
Thu 02:56:00 AM 47.1413 -44.7558 73° East  Level FlightAware Approximate
Thu 02:57:00 AM 47.1808 -44.5618 73° East  Level FlightAware Approximate
Thu 02:58:00 AM 47.2199 -44.3676 73° East  Level FlightAware Approximate
Thu 02:59:00 AM 47.2587 -44.1730 74° East  Level FlightAware Approximate
Thu 03:00:00 AM 47.2972 -43.9782 74° East  Level FlightAware Approximate
Thu 03:01:00 AM 47.3353 -43.7831 74° East  Level FlightAware Approximate
Thu 03:02:00 AM 47.3731 -43.5877 74° East  Level FlightAware Approximate
Thu 03:03:00 AM 47.4106 -43.3921 74° East  Level FlightAware Approximate
Thu 03:04:00 AM 47.4478 -43.1961 74° East  Level FlightAware Approximate
Thu 03:05:00 AM 47.4846 -42.9999 74° East  Level FlightAware Approximate
Thu 03:06:00 AM 47.5211 -42.8034 75° East  Level FlightAware Approximate
Thu 03:07:00 AM 47.5572 -42.6067 75° East  Level FlightAware Approximate
Thu 03:08:00 AM 47.5930 -42.4096 75° East  Level FlightAware Approximate
Thu 03:09:00 AM 47.6285 -42.2123 75° East  Level FlightAware Approximate
Thu 03:10:00 AM 47.6636 -42.0148 75° East  Level FlightAware Approximate
Thu 03:11:00 AM 47.6984 -41.8169 75° East  Level FlightAware Approximate
Thu 03:12:00 AM 47.7328 -41.6188 75° East  Level FlightAware Approximate
Thu 03:13:00 AM 47.7670 -41.4205 76° East  Level FlightAware Approximate
Thu 03:14:00 AM 47.8007 -41.2219 76° East  Level FlightAware Approximate
Thu 03:15:00 AM 47.8341 -41.0230 76° East  Level FlightAware Approximate
Thu 03:16:00 AM 47.8672 -40.8238 76° East  Level FlightAware Approximate
Thu 03:17:00 AM 47.9000 -40.6245 76° East  Level FlightAware Approximate
Thu 03:18:00 AM 47.9324 -40.4248 76° East  Level FlightAware Approximate
Thu 03:19:00 AM 47.9644 -40.2250 76° East  Level FlightAware Approximate
Thu 03:20:00 AM 47.9961 -40.0248 77° East  Level FlightAware Approximate
Thu 03:21:00 AM 48.0256 -39.8238 78° East  Level FlightAware Approximate
Thu 03:22:00 AM 48.0545 -39.6225 78° East  Level FlightAware Approximate
Thu 03:23:00 AM 48.0830 -39.4210 78° East  Level FlightAware Approximate
Thu 03:24:00 AM 48.1111 -39.2192 78° East  Level FlightAware Approximate
Thu 03:25:00 AM 48.1389 -39.0172 78° East  Level FlightAware Approximate
Thu 03:26:00 AM 48.1664 -38.8150 78° East  Level FlightAware Approximate
Thu 03:27:00 AM 48.1935 -38.6126 79° East  Level FlightAware Approximate
Thu 03:28:00 AM 48.2202 -38.4100 79° East  Level FlightAware Approximate
Thu 03:29:00 AM 48.2466 -38.2072 79° East  Level FlightAware Approximate
Thu 03:30:00 AM 48.2726 -38.0041 79° East  Level FlightAware Approximate
Thu 03:31:00 AM 48.2983 -37.8009 79° East  Level FlightAware Approximate
Thu 03:32:00 AM 48.3236 -37.5974 79° East  Level FlightAware Approximate
Thu 03:33:00 AM 48.3486 -37.3938 79° East  Level FlightAware Approximate
Thu 03:34:00 AM 48.3732 -37.1899 80° East  Level FlightAware Approximate
Thu 03:35:00 AM 48.3974 -36.9859 80° East  Level FlightAware Approximate
Thu 03:36:00 AM 48.4213 -36.7816 80° East  Level FlightAware Approximate
Thu 03:37:00 AM 48.4448 -36.5772 80° East  Level FlightAware Approximate
Thu 03:38:00 AM 48.4679 -36.3726 80° East  Level FlightAware Approximate
Thu 03:39:00 AM 48.4907 -36.1678 80° East  Level FlightAware Approximate
Thu 03:40:00 AM 48.5131 -35.9628 81° East  Level FlightAware Approximate
Thu 03:41:00 AM 48.5352 -35.7576 81° East  Level FlightAware Approximate
Thu 03:42:00 AM 48.5569 -35.5523 81° East  Level FlightAware Approximate
Thu 03:43:00 AM 48.5782 -35.3467 81° East  Level FlightAware Approximate
Thu 03:44:00 AM 48.5992 -35.1411 81° East  Level FlightAware Approximate
Thu 03:45:00 AM 48.6198 -34.9352 81° East  Level FlightAware Approximate
Thu 03:46:00 AM 48.6400 -34.7292 81° East  Level FlightAware Approximate
Thu 03:47:00 AM 48.6598 -34.5230 82° East  Level FlightAware Approximate
Thu 03:48:00 AM 48.6793 -34.3166 82° East  Level FlightAware Approximate
Thu 03:49:00 AM 48.6984 -34.1101 82° East  Level FlightAware Approximate
Thu 03:50:00 AM 48.7172 -33.9035 82° East  Level FlightAware Approximate
Thu 03:51:00 AM 48.7356 -33.6966 82° East  Level FlightAware Approximate
Thu 03:52:00 AM 48.7536 -33.4897 82° East  Level FlightAware Approximate
Thu 03:53:00 AM 48.7712 -33.2826 83° East  Level FlightAware Approximate
Thu 03:54:00 AM 48.7885 -33.0753 83° East  Level FlightAware Approximate
Thu 03:55:00 AM 48.8054 -32.8679 83° East  Level FlightAware Approximate
Thu 03:56:00 AM 48.8219 -32.6604 83° East  Level FlightAware Approximate
Thu 03:57:00 AM 48.8381 -32.4527 83° East  Level FlightAware Approximate
Thu 03:58:00 AM 48.8539 -32.2449 83° East  Level FlightAware Approximate
Thu 03:59:00 AM 48.8693 -32.0369 83° East  Level FlightAware Approximate
Thu 04:00:00 AM 48.8843 -31.8289 84° East  Level FlightAware Approximate
Thu 04:01:00 AM 48.8990 -31.6207 84° East  Level FlightAware Approximate
Thu 04:02:00 AM 48.9132 -31.4124 84° East  Level FlightAware Approximate
Thu 04:03:00 AM 48.9272 -31.2040 84° East  Level FlightAware Approximate
Thu 04:04:00 AM 48.9407 -30.9954 84° East  Level FlightAware Approximate
Thu 04:05:00 AM 48.9538 -30.7868 84° East  Level FlightAware Approximate
Thu 04:06:00 AM 48.9666 -30.5780 85° East  Level FlightAware Approximate
Thu 04:07:00 AM 48.9790 -30.3691 85° East  Level FlightAware Approximate
Thu 04:08:00 AM 48.9910 -30.1602 85° East  Level FlightAware Approximate
Thu 04:09:00 AM 49.0067 -29.9520 78° East  Level FlightAware Approximate
Thu 04:10:00 AM 49.0354 -29.7467 78° East  Level FlightAware Approximate
Thu 04:11:00 AM 49.0637 -29.5411 78° East  Level FlightAware Approximate
Thu 04:12:00 AM 49.0916 -29.3353 78° East  Level FlightAware Approximate
Thu 04:13:00 AM 49.1191 -29.1293 78° East  Level FlightAware Approximate
Thu 04:14:00 AM 49.1463 -28.9231 79° East  Level FlightAware Approximate
Thu 04:15:00 AM 49.1733 -28.7166 79° East  Level FlightAware Approximate
Thu 04:16:00 AM 49.2004 -28.5102 79° East  Level FlightAware Approximate
Thu 04:17:00 AM 49.2272 -28.3034 79° East  Level FlightAware Approximate
Thu 04:18:00 AM 49.2536 -28.0965 79° East  Level FlightAware Approximate
Thu 04:19:00 AM 49.2796 -27.8893 79° East  Level FlightAware Approximate
Thu 04:20:00 AM 49.3052 -27.6819 79° East  Level FlightAware Approximate
Thu 04:21:00 AM 49.3305 -27.4744 79° East  Level FlightAware Approximate
Thu 04:22:00 AM 49.3554 -27.2666 79° East  Level FlightAware Approximate
Thu 04:23:00 AM 49.3800 -27.0585 80° East  Level FlightAware Approximate
Thu 04:24:00 AM 49.4041 -26.8503 80° East  Level FlightAware Approximate
Thu 04:25:00 AM 49.4279 -26.6419 80° East  Level FlightAware Approximate
Thu 04:26:00 AM 49.4513 -26.4333 80° East  Level FlightAware Approximate
Thu 04:27:00 AM 49.4744 -26.2245 80° East  Level FlightAware Approximate
Thu 04:28:00 AM 49.4970 -26.0155 80° East  Level FlightAware Approximate
Thu 04:29:00 AM 49.5193 -25.8062 81° East  Level FlightAware Approximate
Thu 04:30:00 AM 49.5412 -25.5968 81° East  Level FlightAware Approximate
Thu 04:31:00 AM 49.5628 -25.3873 81° East  Level FlightAware Approximate
Thu 04:32:00 AM 49.5839 -25.1775 81° East  Level FlightAware Approximate
Thu 04:33:00 AM 49.6047 -24.9676 81° East  Level FlightAware Approximate
Thu 04:34:00 AM 49.6251 -24.7574 81° East  Level FlightAware Approximate
Thu 04:35:00 AM 49.6451 -24.5471 82° East  Level FlightAware Approximate
Thu 04:36:00 AM 49.6647 -24.3367 82° East  Level FlightAware Approximate
Thu 04:37:00 AM 49.6839 -24.1260 82° East  Level FlightAware Approximate
Thu 04:38:00 AM 49.7028 -23.9152 82° East  Level FlightAware Approximate
Thu 04:39:00 AM 49.7213 -23.7043 82° East  Level FlightAware Approximate
Thu 04:40:00 AM 49.7394 -23.4931 82° East  Level FlightAware Approximate
Thu 04:41:00 AM 49.7571 -23.2819 83° East  Level FlightAware Approximate
Thu 04:42:00 AM 49.7744 -23.0704 83° East  Level FlightAware Approximate
Thu 04:43:00 AM 49.7914 -22.8589 83° East  Level FlightAware Approximate
Thu 04:44:00 AM 49.8079 -22.6471 83° East  Level FlightAware Approximate
Thu 04:45:00 AM 49.8248 -22.4354 83° East  Level FlightAware Approximate
Thu 04:46:00 AM 49.8421 -22.2237 83° East  Level FlightAware Approximate
Thu 04:47:00 AM 49.8590 -22.0118 83° East  Level FlightAware Approximate
Thu 04:48:00 AM 49.8756 -21.7997 83° East  Level FlightAware Approximate
Thu 04:49:00 AM 49.8917 -21.5876 83° East  Level FlightAware Approximate
Thu 04:50:00 AM 49.9075 -21.3753 83° East  Level FlightAware Approximate
Thu 04:51:00 AM 49.9229 -21.1628 84° East  Level FlightAware Approximate
Thu 04:52:00 AM 49.9379 -20.9502 84° East  Level FlightAware Approximate
Thu 04:53:00 AM 49.9525 -20.7375 84° East  Level FlightAware Approximate
Thu 04:54:00 AM 49.9667 -20.5247 84° East  Level FlightAware Approximate
Thu 04:55:00 AM 49.9805 -20.3117 84° East  Level FlightAware Approximate
Thu 04:56:00 AM 49.9939 -20.0986 84° East  Level FlightAware Approximate
Thu 04:57:00 AM 50.0213 -19.8898 73° East  Level FlightAware Approximate
Thu 04:58:00 AM 50.0606 -19.6844 73° East  Level FlightAware Approximate
Thu 04:59:00 AM 50.0996 -19.4786 73° East  Level FlightAware Approximate
Thu 05:00:00 AM 50.1382 -19.2725 74° East  Level FlightAware Approximate
Thu 05:01:00 AM 50.1764 -19.0661 74° East  Level FlightAware Approximate
Thu 05:02:00 AM 50.2143 -18.8594 74° East  Level FlightAware Approximate
Thu 05:03:00 AM 50.2518 -18.6523 74° East  Level FlightAware Approximate
Thu 05:04:00 AM 50.2890 -18.4449 74° East  Level FlightAware Approximate
Thu 05:05:00 AM 50.3257 -18.2372 74° East  Level FlightAware Approximate
Thu 05:06:00 AM 50.3621 -18.0292 75° East  Level FlightAware Approximate
Thu 05:07:00 AM 50.3982 -17.8208 75° East  Level FlightAware Approximate
Thu 05:08:00 AM 50.4338 -17.6122 75° East  Level FlightAware Approximate
Thu 05:09:00 AM 50.4693 -17.4033 75° East  Level FlightAware Approximate
Thu 05:10:00 AM 50.5047 -17.1942 75° East  Level FlightAware Approximate
Thu 05:11:00 AM 50.5396 -16.9848 75° East  Level FlightAware Approximate
Thu 05:12:00 AM 50.5742 -16.7750 75° East  Level FlightAware Approximate
Thu 05:13:00 AM 50.6084 -16.5650 76° East  Level FlightAware Approximate
Thu 05:14:00 AM 50.6423 -16.3547 76° East  Level FlightAware Approximate
Thu 05:15:00 AM 50.6757 -16.1440 76° East  Level FlightAware Approximate
Thu 05:16:00 AM 50.7088 -15.9331 76° East  Level FlightAware Approximate
Thu 05:17:00 AM 50.7415 -15.7218 76° East  Level FlightAware Approximate
Thu 05:18:00 AM 50.7738 -15.5103 76° East  Level FlightAware Approximate
Thu 05:19:00 AM 50.8057 -15.2985 77° East  Level FlightAware Approximate
Thu 05:20:00 AM 50.8373 -15.0864 77° East  Level FlightAware Approximate
Thu 05:21:00 AM 50.8682 -14.8738 77° East  Level FlightAware Approximate
Thu 05:22:00 AM 50.8984 -14.6610 77° East  Level FlightAware Approximate
Thu 05:23:00 AM 50.9284 -14.4479 77° East  Level FlightAware Approximate
Thu 05:24:00 AM 50.9579 -14.2345 78° East  Level FlightAware Approximate
Thu 05:25:00 AM 50.9870 -14.0208 78° East  Level FlightAware Approximate
Thu 05:26:00 AM 51.0158 -13.8069 78° East  Level FlightAware Approximate
Thu 05:27:00 AM 51.0452 -13.5930 78° East  Level FlightAware Approximate
Thu 05:28:00 AM 51.0742 -13.3789 78° East  Level FlightAware Approximate
Thu 05:29:00 AM 51.1029 -13.1646 78° East  Level FlightAware Approximate
Thu 05:30:00 AM 51.1311 -12.9500 78° East  Level FlightAware Approximate
Thu 05:31:00 AM 51.1590 -12.7351 78° East  Level FlightAware Approximate
Thu 05:32:00 AM 51.1865 -12.5199 78° East  Level FlightAware Approximate
Thu 05:33:00 AM 51.2136 -12.3045 79° East  Level FlightAware Approximate
Thu 05:34:00 AM 51.2403 -12.0889 79° East  Level FlightAware Approximate
Thu 05:35:00 AM 51.2666 -11.8730 79° East  Level FlightAware Approximate
Thu 05:36:00 AM 51.2925 -11.6568 79° East  Level FlightAware Approximate
Thu 05:37:00 AM 51.3180 -11.4404 79° East  Level FlightAware Approximate
Thu 05:38:00 AM 51.3431 -11.2238 79° East  Level FlightAware Approximate
Thu 05:39:00 AM 51.3677 -11.0069 80° East  Level FlightAware Approximate
Thu 05:40:00 AM 51.3913 -10.7896 80° East  Level FlightAware Approximate
Thu 05:41:00 AM 51.4146 -10.5721 80° East  Level FlightAware Approximate
Thu 05:42:00 AM 51.4374 -10.3544 80° East  Level FlightAware Approximate
Thu 05:43:00 AM 51.4598 -10.1365 81° East  Level FlightAware Approximate
Thu 05:44:00 AM 51.4818 -9.9183 81° East  Level FlightAware Approximate
Thu 05:44:58 AM 50.8870 -10.8350 81° East 497 572 33,000  Level FlightAware ADS-B
Thu 05:45:00 AM 51.5033 -9.6999 81° East  Level FlightAware Approximate
Thu 05:45:38 AM 50.9150 -10.7120 70° East 497 572 33,000  Level FlightAware ADS-B
Thu 05:46:38 AM 50.9620 -10.5040 70° East 495 570 33,000  Level FlightAware ADS-B
Thu 05:47:18 AM 50.9890 -10.3880 70° East 495 570 33,000  Level FlightAware ADS-B
Thu 05:47:58 AM 51.0230 -10.2280 71° East 495 570 33,000  Level FlightAware ADS-B
Thu 05:48:43 AM 51.0590 -10.0660 70° East 496 571 33,000  Level FlightAware ADS-B
Thu 05:49:23 AM 51.0870 -9.9420 70° East 496 571 33,000  Level FlightAware ADS-B
Thu 05:50:08 AM 51.1220 -9.7770 71° East 498 573 33,000  Level FlightAware ADS-B
Thu 05:50:43 AM 51.1480 -9.6590 71° East 500 575 33,000  Level FlightAware ADS-B
Thu 05:51:23 AM 51.1760 -9.5280 71° East 501 577 33,000  Level FlightAware ADS-B
Thu 05:52:13 AM 51.2150 -9.3450 71° East 504 580 33,000  Level FlightAware ADS-B
Thu 05:52:43 AM 51.2370 -9.2400 71° East 504 580 33,000  Level FlightAware ADS-B
Thu 05:53:43 AM 51.2790 -9.0410 71° East 505 581 33,000  Level FlightAware ADS-B
Thu 05:54:33 AM 51.3180 -8.8550 71° East 33,000  Level FlightAware ADS-B
Thu 05:55:13 AM 51.3490 -8.7080 71° East 506 582 33,000  Level FlightAware ADS-B
Thu 05:55:48 AM 51.3730 -8.5880 72° East 507 583 33,000  Level FlightAware ADS-B
Thu 05:58:00 AM 51.3950 -8.1040 86° East  Level Estimated
Thu 05:58:18 AM 51.4810 -8.0580 86° East 505 581 33,000  Level FlightAware ADS-B
Thu 06:00:00 AM 51.4924 -7.6826 87° East  Level Estimated
Thu 06:01:00 AM 51.4985 -7.4617 87° East  Level Estimated
Thu 06:02:00 AM 51.5042 -7.2408 88° East  Level Estimated
Thu 06:03:00 AM 51.5095 -7.0198 88° East  Level Estimated
Thu 06:04:00 AM 51.5144 -6.7987 88° East  Level Estimated
Thu 06:05:00 AM 51.5189 -6.5776 88° East  Level Estimated
Thu 06:06:00 AM 51.5229 -6.3565 88° East  Level Estimated
Thu 06:06:53 AM 51.7490 -6.2170 88° East 484 557 33,000  Level FlightAware ADS-B
Thu 06:07:33 AM 51.7430 -6.0710 94° East 490 564 33,000  Level FlightAware ADS-B
Thu 06:08:18 AM 51.7370 -5.9080 93° East 496 571 33,000  Level FlightAware ADS-B
Thu 06:08:58 AM 51.7310 -5.7610 94° East 497 572 33,000  Level FlightAware ADS-B
Thu 06:09:43 AM 51.7240 -5.6000 94° East 495 570 33,000  Level FlightAware ADS-B
Thu 06:10:23 AM 51.7170 -5.4450 94° East 495 570 33,000  Level FlightAware ADS-B
Thu 06:11:08 AM 51.7100 -5.2820 94° East 496 571 33,000  Level FlightAware ADS-B
Thu 06:11:48 AM 51.7030 -5.1360 94° East 497 572 33,000  Level FlightAware ADS-B
Thu 06:12:28 AM 51.6960 -4.9850 94° East 498 573 33,000  Level FlightAware ADS-B
Thu 06:13:13 AM 51.6870 -4.8190 95° East 499 574 33,000  Level FlightAware ADS-B
Thu 06:13:53 AM 51.6800 -4.6710 94° East 500 575 33,000  Level FlightAware ADS-B
Thu 06:14:38 AM 51.6710 -4.5030 95° East 501 577 33,000  Level FlightAware ADS-B
Thu 06:15:18 AM 51.6640 -4.3600 94° East 501 577 33,000  Level FlightAware ADS-B
Thu 06:15:58 AM 51.6550 -4.2120 96° East 501 577 33,000  Level FlightAware ADS-B
Thu 06:16:43 AM 51.6460 -4.0400 95° East 500 575 33,000  Level FlightAware ADS-B
Thu 06:17:23 AM 51.6370 -3.8940 96° East 501 577 33,000  Level FlightAware ADS-B
Thu 06:18:08 AM 51.6270 -3.7280 95° East 502 578 33,000  Level FlightAware ADS-B
Thu 06:18:48 AM 51.6180 -3.5740 95° East 502 578 33,000 -375 Level FlightAware ADS-B
Thu 06:19:28 AM 51.6090 -3.4280 96° East 502 578 32,500 -988 Descending FlightAware ADS-B
Thu 06:20:13 AM 51.5970 -3.2700 97° East 473 544 31,600 -1,271 Descending FlightAware ADS-B
Thu 06:20:53 AM 51.5810 -3.1330 101° East 447 514 30,700 -1,350 Descending FlightAware ADS-B
Thu 06:21:33 AM 51.5630 -3.0020 102° East 417 480 29,800 -1,765 Descending FlightAware ADS-B
Thu 06:22:18 AM 51.5460 -2.8700 102° East 409 471 28,200 -2,300 Descending FlightAware ADS-B
Thu 06:22:33 AM 51.5387 -2.8176 103° East 410 472 27,500 -1,905 Descending FlightAware ADS-B
Thu 06:23:21 AM 51.5203 -2.6799 102° East 392 451 26,200 -1,852 Descending FlightAware ADS-B
Thu 06:23:54 AM 51.5085 -2.5880 102° East 392 451 25,000 -2,031 Descending FlightAware ADS-B
Thu 06:24:26 AM 51.4969 -2.5009 102° East 377 434 24,000 -1,967 Descending FlightAware ADS-B
Thu 06:24:55 AM 51.4855 -2.4218 103° East 368 423 23,000 -1,967 Descending FlightAware ADS-B
Thu 06:25:27 AM 51.4746 -2.3369 102° East 362 417 22,000 -1,905 Descending FlightAware ADS-B
Thu 06:25:58 AM 51.4640 -2.2573 102° East 355 409 21,000 -1,967 Descending FlightAware ADS-B
Thu 06:26:28 AM 51.4536 -2.1806 102° East 353 406 20,000 -1,938 Descending FlightAware ADS-B
Thu 06:27:03 AM 51.4413 -2.0917 102° East 351 404 18,900 -1,754 Descending FlightAware ADS-B
Thu 06:27:33 AM 51.4307 -2.0157 103° East 346 398 18,100 -1,688 Descending FlightAware ADS-B
Thu 06:28:07 AM 51.4189 -1.9315 103° East 342 394 17,100 -1,612 Descending FlightAware ADS-B
Thu 06:28:40 AM 51.4076 -1.8522 103° East 338 389 16,300 -1,429 Descending FlightAware ADS-B
Thu 06:29:10 AM 51.3972 -1.7783 103° East 335 386 15,600 -1,377 Descending FlightAware ADS-B
Thu 06:29:41 AM 51.3866 -1.7036 103° East 332 382 14,900 -1,292 Descending FlightAware ADS-B
Thu 06:30:15 AM 51.3749 -1.6226 103° East 327 376 14,200 -831 Descending FlightAware ADS-B
Thu 06:30:46 AM 51.3646 -1.5507 103° East 323 372 14,000 -179 Descending FlightAware ADS-B
Thu 06:31:22 AM 51.3526 -1.4679 103° East 328 377 14,000  Level FlightAware ADS-B
Thu 06:31:52 AM 51.3419 -1.3956 103° East 329 379 14,000  Level FlightAware ADS-B
Thu 06:32:23 AM 51.3313 -1.3236 103° East 315 362 14,000  Level FlightAware ADS-B
Thu 06:32:50 AM 51.3226 -1.2640 103° East 299 344 14,000  Level FlightAware ADS-B
Thu 06:33:17 AM 51.3143 -1.2079 103° East 297 342 14,000  Level FlightAware ADS-B
Thu 06:33:26 AM 51.3120 -1.1871 100° East 300 345 14,000  Level FlightAware ADS-B
Thu 06:33:31 AM 51.3111 -1.1761 97° East 301 346 14,000  Level FlightAware ADS-B
Thu 06:33:59 AM 51.3096 -1.1152 92° East 304 350 14,000  Level FlightAware ADS-B
Thu 06:34:24 AM 51.3092 -1.0581 91° East 306 352 14,000  Level FlightAware ADS-B
Thu 06:34:55 AM 51.3089 -0.9880 90° East 306 352 14,000 -290 Level FlightAware ADS-B
Thu 06:35:26 AM 51.3082 -0.9187 91° East 307 353 13,700 -787 Descending FlightAware ADS-B
Thu 06:35:56 AM 51.3075 -0.8499 91° East 303 349 13,200 -1,000 Descending FlightAware ADS-B
Thu 06:36:26 AM 51.3070 -0.7836 91° East 298 343 12,700 -984 Descending FlightAware ADS-B
Thu 06:36:57 AM 51.3062 -0.7153 91° East 295 339 12,200 -952 Descending FlightAware ADS-B
Thu 06:37:29 AM 51.3053 -0.6484 91° East 288 331 11,700 -968 Descending FlightAware ADS-B
Thu 06:37:59 AM 51.3046 -0.5848 91° East 281 323 11,200 -984 Descending FlightAware ADS-B
Thu 06:38:30 AM 51.3037 -0.5215 91° East 275 316 10,700 -984 Descending FlightAware ADS-B
Thu 06:39:00 AM 51.3029 -0.4605 91° East 271 312 10,200 -689 Descending FlightAware ADS-B
Thu 06:39:31 AM 51.3017 -0.3991 92° East 270 311 10,000 -214 Descending FlightAware ADS-B
Thu 06:39:56 AM 51.3010 -0.3486 91° East 269 310 10,000  Level FlightAware ADS-B
Thu 06:40:03 AM 51.2999 -0.3357 98° East 268 308 10,000  Level FlightAware ADS-B
Thu 06:40:07 AM 51.2982 -0.3277 109° East 266 306 10,000  Level FlightAware ADS-B
Thu 06:40:17 AM 51.2919 -0.3123 123° Southeast 261 300 10,000  Level FlightAware ADS-B
Thu 06:40:22 AM 51.2878 -0.3059 135° Southeast 260 299 10,000  Level FlightAware ADS-B
Thu 06:40:29 AM 51.2800 -0.2976 147° Southeast 257 296 10,000  Level FlightAware ADS-B
Thu 06:40:39 AM 51.2689 -0.2916 161° South 253 291 10,000  Level FlightAware ADS-B
Thu 06:40:49 AM 51.2576 -0.2912 179° South 250 288 10,000  Level FlightAware ADS-B
Thu 06:40:56 AM 51.2497 -0.2943 194° South 247 284 10,000  Level FlightAware ADS-B
Thu 06:41:05 AM 51.2404 -0.3018 207° Southwest 246 283 10,000  Level FlightAware ADS-B
Thu 06:41:11 AM 51.2355 -0.3083 220° Southwest 245 282 10,000  Level FlightAware ADS-B
Thu 06:41:19 AM 51.2299 -0.3194 231° Southwest 245 282 10,000  Level FlightAware ADS-B
Thu 06:41:25 AM 51.2267 -0.3291 242° Southwest 245 282 10,000  Level FlightAware ADS-B
Thu 06:41:29 AM 51.2253 -0.3351 250° West 246 283 10,000  Level FlightAware ADS-B
Thu 06:41:32 AM 51.2243 -0.3416 256° West 245 282 10,000  Level FlightAware ADS-B
Thu 06:41:37 AM 51.2236 -0.3500 262° West 246 283 10,000  Level FlightAware ADS-B
Thu 06:41:42 AM 51.2236 -0.3583 270° West 247 284 10,000  Level FlightAware ADS-B
Thu 06:41:46 AM 51.2245 -0.3669 280° West 247 284 10,000  Level FlightAware ADS-B
Thu 06:41:50 AM 51.2258 -0.3737 287° West 249 287 10,000  Level FlightAware ADS-B
Thu 06:41:53 AM 51.2271 -0.3792 291° West 249 287 10,000  Level FlightAware ADS-B
Thu 06:42:00 AM 51.2307 -0.3896 299° West 250 288 10,000  Level FlightAware ADS-B
Thu 06:42:04 AM 51.2338 -0.3960 308° West 252 290 10,000  Level FlightAware ADS-B
Thu 06:42:09 AM 51.2381 -0.4025 316° Northwest 255 293 10,000  Level FlightAware ADS-B
Thu 06:42:14 AM 51.2428 -0.4079 325° Northwest 256 295 10,000  Level FlightAware ADS-B
Thu 06:42:25 AM 51.2540 -0.4192 328° Northwest 257 296 10,000  Level FlightAware ADS-B
Thu 06:42:41 AM 51.2693 -0.4366 325° Northwest 257 296 10,000  Level FlightAware ADS-B
Thu 06:43:11 AM 51.2995 -0.4671 328° Northwest 258 297 10,000  Level FlightAware ADS-B
Thu 06:43:16 AM 51.3047 -0.4717 331° Northwest 260 299 10,000  Level FlightAware ADS-B
Thu 06:43:20 AM 51.3089 -0.4745 338° Northwest 263 303 10,000  Level FlightAware ADS-B
Thu 06:43:23 AM 51.3128 -0.4763 344° North 264 304 10,000  Level FlightAware ADS-B
Thu 06:43:27 AM 51.3175 -0.4776 350° North 266 306 10,000  Level FlightAware ADS-B
Thu 06:43:31 AM 51.3223 -0.4779 358° North 267 307 10,000  Level FlightAware ADS-B
Thu 06:43:38 AM 51.3308 -0.4763 North 270 311 10,000  Level FlightAware ADS-B
Thu 06:43:43 AM 51.3360 -0.4741 15° North 271 312 10,000  Level FlightAware ADS-B
Thu 06:43:48 AM 51.3425 -0.4699 22° Northeast 273 314 10,000  Level FlightAware ADS-B
Thu 06:43:52 AM 51.3470 -0.4657 30° Northeast 274 315 10,000  Level FlightAware ADS-B
Thu 06:43:57 AM 51.3517 -0.4597 38° Northeast 275 316 10,000  Level FlightAware ADS-B
Thu 06:44:00 AM 51.3547 -0.4546 47° Northeast 275 316 10,000  Level FlightAware ADS-B
Thu 06:44:06 AM 51.3587 -0.4453 55° Northeast 275 316 10,000  Level FlightAware ADS-B
Thu 06:44:10 AM 51.3609 -0.4386 62° Northeast 274 315 10,000  Level FlightAware ADS-B
Thu 06:44:13 AM 51.3624 -0.4324 69° East 274 315 10,000  Level FlightAware ADS-B
Thu 06:44:20 AM 51.3640 -0.4180 80° East 273 314 10,000  Level FlightAware ADS-B
Thu 06:44:24 AM 51.3640 -0.4104 90° East 272 313 10,000  Level FlightAware ADS-B
Thu 06:44:27 AM 51.3636 -0.4035 95° East 271 312 10,000  Level FlightAware ADS-B
Thu 06:44:32 AM 51.3620 -0.3937 105° East 269 310 10,000  Level FlightAware ADS-B
Thu 06:44:38 AM 51.3596 -0.3848 113° Southeast 267 307 10,000  Level FlightAware ADS-B
Thu 06:44:41 AM 51.3575 -0.3792 121° Southeast 265 305 10,000  Level FlightAware ADS-B
Thu 06:44:48 AM 51.3519 -0.3688 131° Southeast 262 302 10,000  Level FlightAware ADS-B
Thu 06:44:57 AM 51.3436 -0.3591 144° Southeast 257 296 10,000  Level FlightAware ADS-B
Thu 06:45:10 AM 51.3293 -0.3461 150° Southeast 259 298 10,000  Level FlightAware ADS-B
Thu 06:45:28 AM 51.3111 -0.3280 148° Southeast 257 296 10,000  Level FlightAware ADS-B
Thu 06:45:56 AM 51.2827 -0.3019 150° Southeast 257 296 10,000  Level FlightAware ADS-B
Thu 06:45:59 AM 51.2789 -0.2989 154° Southeast 256 295 10,000  Level FlightAware ADS-B
Thu 06:46:07 AM 51.2700 -0.2952 165° South 252 290 10,000  Level FlightAware ADS-B
Thu 06:46:10 AM 51.2664 -0.2949 177° South 251 289 10,000  Level FlightAware ADS-B
Thu 06:46:19 AM 51.2563 -0.2969 187° South 248 285 10,000  Level FlightAware ADS-B
Thu 06:46:27 AM 51.2474 -0.3016 198° South 249 287 10,000  Level FlightAware ADS-B
Thu 06:46:31 AM 51.2440 -0.3043 207° Southwest 248 285 10,000  Level FlightAware ADS-B
Thu 06:46:38 AM 51.2368 -0.3125 215° Southwest 248 285 10,000  Level FlightAware ADS-B
Thu 06:46:47 AM 51.2306 -0.3233 228° Southwest 246 283 10,000  Level FlightAware ADS-B
Thu 06:46:51 AM 51.2283 -0.3297 240° Southwest 246 283 10,000  Level FlightAware ADS-B
Thu 06:46:58 AM 51.2252 -0.3411 246° West 244 281 10,000  Level FlightAware ADS-B
Thu 06:47:05 AM 51.2234 -0.3543 258° West 246 283 10,000  Level FlightAware ADS-B
Thu 06:47:10 AM 51.2232 -0.3636 268° West 245 282 10,000  Level FlightAware ADS-B
Thu 06:47:14 AM 51.2236 -0.3708 275° West 246 283 10,000  Level FlightAware ADS-B
Thu 06:47:22 AM 51.2259 -0.3847 285° West 248 285 10,000  Level FlightAware ADS-B
Thu 06:47:28 AM 51.2290 -0.3951 295° West 249 287 10,000  Level FlightAware ADS-B
Thu 06:47:34 AM 51.2329 -0.4037 306° West 251 289 10,000  Level FlightAware ADS-B
Thu 06:47:41 AM 51.2389 -0.4128 317° Northwest 253 291 10,000  Level FlightAware ADS-B
Thu 06:47:46 AM 51.2434 -0.4181 323° Northwest 255 293 10,000  Level FlightAware ADS-B
Thu 06:48:10 AM 51.2670 -0.4440 326° Northwest 256 295 10,000 -176 Level FlightAware ADS-B
Thu 06:48:20 AM 51.2766 -0.4544 326° Northwest 259 298 9,900 -857 Descending FlightAware ADS-B
Thu 06:48:31 AM 51.2882 -0.4661 328° Northwest 261 300 9,700 -800 Descending FlightAware ADS-B
Thu 06:48:35 AM 51.2921 -0.4706 324° Northwest 259 298 9,700 -750 Level FlightAware ADS-B
Thu 06:48:39 AM 51.2953 -0.4756 316° Northwest 257 296 9,600 -1,500 Descending FlightAware ADS-B

Login

Don't have an account? Register now (free) for customized features, flight alerts, and more!